Time;durP1;ratioP1;P1;durP2;ratioP2;P2;SDS_P1;SDS_P2;PMS_P1;PMS_P2;Temp;Humidity;BMP_temperature;BMP_pressure;BME280_temperature;BME280_humidity;BME280_pressure;Samples;Min_cycle;Max_cycle;Signal;HPM_P1;HPM_P2
2024/01/30 00:01:04;;;;;;;13.05;6.57;;;3.00;57.70;;;;;;5093604;28;20213;-71
2024/01/30 00:03:31;;;;;;;12.80;5.78;;;3.00;57.80;;;;;;5086143;28;20218;-70
2024/01/30 00:06:01;;;;;;;6.22;5.38;;;3.00;57.90;;;;;;5087807;28;20268;-71
2024/01/30 00:08:28;;;;;;;9.40;5.65;;;2.90;58.00;;;;;;5093616;28;20225;-71
2024/01/30 00:10:55;;;;;;;8.73;6.10;;;2.90;58.20;;;;;;5093895;28;20216;-71
2024/01/30 00:13:22;;;;;;;12.15;6.53;;;2.90;58.30;;;;;;5076389;28;20654;-71
2024/01/30 00:15:51;;;;;;;11.98;6.15;;;2.80;58.40;;;;;;5093456;28;20181;-71
2024/01/30 00:18:18;;;;;;;13.52;7.63;;;2.80;58.50;;;;;;5091144;28;20249;-71
2024/01/30 00:20:45;;;;;;;9.73;5.70;;;2.80;58.60;;;;;;5091816;28;20177;-71
2024/01/30 00:23:15;;;;;;;11.85;7.00;;;2.90;58.50;;;;;;5083476;28;20272;-70
2024/01/30 00:25:42;;;;;;;10.57;6.88;;;2.80;58.40;;;;;;5079726;28;20190;-71
2024/01/30 00:28:10;;;;;;;8.80;5.80;;;2.80;58.80;;;;;;5093024;28;20262;-71
2024/01/30 00:30:38;;;;;;;9.07;5.85;;;2.80;59.40;;;;;;5093001;28;20248;-71
2024/01/30 00:33:08;;;;;;;9.93;5.40;;;2.80;59.20;;;;;;5093022;28;20251;-71
2024/01/30 00:35:35;;;;;;;8.70;5.05;;;2.80;58.70;;;;;;5092928;28;20648;-71
2024/01/30 00:38:07;;;;;;;10.48;5.47;;;2.90;58.90;;;;;;5074943;28;20218;-71
2024/01/30 00:40:33;;;;;;;7.25;4.97;;;2.80;58.90;;;;;;5072710;28;20178;-70
2024/01/30 00:43:00;;;;;;;9.60;5.20;;;2.80;58.90;;;;;;5085450;28;20643;-71
2024/01/30 00:45:27;;;;;;;9.77;5.85;;;2.80;58.80;;;;;;5093370;28;20213;-71
2024/01/30 00:47:55;;;;;;;6.35;4.32;;;2.70;58.90;;;;;;5092300;28;20256;-71
2024/01/30 00:50:26;;;;;;;6.43;4.22;;;2.70;58.90;;;;;;5090323;28;20215;-71
2024/01/30 00:52:59;;;;;;;6.00;3.95;;;2.80;59.00;;;;;;5092895;28;20692;-71
2024/01/30 00:55:26;;;;;;;8.85;4.40;;;2.70;59.30;;;;;;5080205;28;20269;-71
2024/01/30 00:57:53;;;;;;;9.07;4.70;;;2.60;59.60;;;;;;5072871;28;20233;-71
2024/01/30 01:00:28;;;;;;;6.10;4.13;;;2.50;60.40;;;;;;5080055;28;20585;-71
2024/01/30 01:03:01;;;;;;;5.85;3.67;;;2.30;61.70;;;;;;5093208;28;20184;-71
2024/01/30 01:05:31;;;;;;;5.32;3.20;;;2.30;62.40;;;;;;5093277;28;20264;-70
2024/01/30 01:07:58;;;;;;;4.88;3.42;;;2.30;63.20;;;;;;5093544;28;20251;-71
2024/01/30 01:10:25;;;;;;;6.25;3.40;;;2.20;63.30;;;;;;5081233;28;20189;-71
2024/01/30 01:12:52;;;;;;;9.30;4.20;;;2.20;63.80;;;;;;5079353;28;20190;-72
2024/01/30 01:15:20;;;;;;;11.27;4.13;;;2.10;64.30;;;;;;5079181;28;20226;-71
2024/01/30 01:17:47;;;;;;;9.55;4.47;;;2.10;64.30;;;;;;5083087;28;20220;-71
2024/01/30 01:20:14;;;;;;;6.60;3.75;;;2.20;64.30;;;;;;5099794;28;20268;-71
2024/01/30 01:22:43;;;;;;;7.05;3.38;;;2.20;64.20;;;;;;5093465;28;20213;-71
2024/01/30 01:25:10;;;;;;;5.57;4.07;;;2.30;64.10;;;;;;5080012;28;20224;-71
2024/01/30 01:27:42;;;;;;;6.68;4.22;;;2.30;63.60;;;;;;5079517;28;20252;-71
2024/01/30 01:30:11;;;;;;;4.47;2.92;;;2.40;63.30;;;;;;5079804;28;20232;-71
2024/01/30 01:32:44;;;;;;;8.18;4.10;;;2.40;63.00;;;;;;5079136;28;20186;-71
2024/01/30 01:35:11;;;;;;;5.95;3.55;;;2.50;63.10;;;;;;5079968;28;20174;-71
2024/01/30 01:37:38;;;;;;;5.53;3.72;;;2.50;62.30;;;;;;5079453;28;20277;-71
2024/01/30 01:40:08;;;;;;;7.43;4.25;;;2.50;61.70;;;;;;5079089;28;20228;-71
2024/01/30 01:42:35;;;;;;;8.25;4.53;;;2.50;61.40;;;;;;5079462;28;20174;-71
2024/01/30 01:45:03;;;;;;;8.90;4.10;;;2.50;61.30;;;;;;5079519;28;20186;-71
2024/01/30 01:47:35;;;;;;;5.57;3.05;;;2.50;61.30;;;;;;5079691;28;20241;-71
2024/01/30 01:50:02;;;;;;;7.10;4.18;;;2.50;60.30;;;;;;5080370;28;20178;-71
2024/01/30 01:52:30;;;;;;;6.30;3.33;;;2.40;59.70;;;;;;5099292;28;20185;-71
2024/01/30 01:54:57;;;;;;;7.93;3.80;;;2.50;59.50;;;;;;5099925;28;20192;-71
2024/01/30 01:57:25;;;;;;;6.43;3.97;;;2.40;59.30;;;;;;5099711;28;20189;-71
2024/01/30 01:59:52;;;;;;;5.70;4.03;;;2.40;59.30;;;;;;5099452;28;20674;-71
2024/01/30 02:02:21;;;;;;;8.90;4.07;;;2.40;59.50;;;;;;5099364;28;20224;-71
2024/01/30 02:04:48;;;;;;;5.53;3.78;;;2.30;59.20;;;;;;5098656;28;20225;-71
2024/01/30 02:07:15;;;;;;;6.60;3.47;;;2.30;59.40;;;;;;5099343;28;20255;-71
2024/01/30 02:09:43;;;;;;;4.70;3.35;;;2.30;59.50;;;;;;5099075;28;20272;-71
2024/01/30 02:12:10;;;;;;;9.68;7.15;;;2.30;59.50;;;;;;5099372;28;20266;-71
2024/01/30 02:14:47;;;;;;;7.30;5.10;;;2.30;59.70;;;;;;5099301;28;20224;-71
2024/01/30 02:17:14;;;;;;;6.50;4.30;;;2.30;59.90;;;;;;5097002;28;20216;-71
2024/01/30 02:19:41;;;;;;;6.13;3.90;;;2.30;59.90;;;;;;5097096;28;20189;-71
2024/01/30 02:22:11;;;;;;;9.10;5.15;;;2.20;59.90;;;;;;5094986;28;20235;-71
2024/01/30 02:24:38;;;;;;;8.38;4.85;;;2.20;59.80;;;;;;5095933;28;20280;-71
2024/01/30 02:27:05;;;;;;;10.93;4.63;;;2.20;59.80;;;;;;5096334;28;20224;-72
2024/01/30 02:29:32;;;;;;;6.07;3.83;;;2.20;59.60;;;;;;5096035;28;20235;-71
2024/01/30 02:31:59;;;;;;;8.35;4.13;;;2.20;59.50;;;;;;5095312;28;20631;-71
2024/01/30 02:34:26;;;;;;;7.38;3.78;;;2.20;59.20;;;;;;5095992;28;20272;-71
2024/01/30 02:36:53;;;;;;;8.07;4.10;;;2.20;58.90;;;;;;5095722;28;20273;-71
2024/01/30 02:39:21;;;;;;;5.93;3.63;;;2.10;58.60;;;;;;5095742;28;20193;-71
2024/01/30 02:41:50;;;;;;;7.70;4.20;;;2.10;58.40;;;;;;5095624;28;20225;-71
2024/01/30 02:44:18;;;;;;;7.05;4.50;;;2.00;58.50;;;;;;5096009;28;20225;-71
2024/01/30 02:46:45;;;;;;;7.50;3.85;;;2.00;58.90;;;;;;5095249;28;20674;-71
2024/01/30 02:49:12;;;;;;;8.63;4.50;;;2.00;59.10;;;;;;5095490;28;20249;-71
2024/01/30 02:51:39;;;;;;;11.07;4.85;;;2.00;58.90;;;;;;5095729;28;20208;-71
2024/01/30 02:54:06;;;;;;;6.97;3.88;;;1.90;58.70;;;;;;5095731;28;20270;-71
2024/01/30 02:56:34;;;;;;;8.65;3.95;;;1.90;58.90;;;;;;5095741;28;20246;-71
2024/01/30 02:59:01;;;;;;;7.18;4.22;;;1.90;59.10;;;;;;5095345;28;20220;-71
2024/01/30 03:01:28;;;;;;;6.03;3.70;;;1.80;59.10;;;;;;5092758;28;20217;-71
2024/01/30 03:03:56;;;;;;;6.75;4.10;;;1.80;59.20;;;;;;5095426;28;20631;-71
2024/01/30 03:06:23;;;;;;;6.68;4.30;;;1.80;59.50;;;;;;5095150;28;20228;-71
2024/01/30 03:08:50;;;;;;;7.53;4.38;;;1.80;59.80;;;;;;5095746;28;20319;-71
2024/01/30 03:11:16;;;;;;;8.25;4.13;;;1.80;59.60;;;;;;5095501;28;20272;-71
2024/01/30 03:13:45;;;;;;;6.75;4.43;;;1.80;59.40;;;;;;5094938;28;20210;-71
2024/01/30 03:16:12;;;;;;;5.93;3.15;;;1.80;59.40;;;;;;5095439;28;20562;-71
2024/01/30 03:18:42;;;;;;;5.93;3.85;;;1.70;59.30;;;;;;5095048;28;20578;-71
2024/01/30 03:21:09;;;;;;;6.60;3.88;;;1.80;59.40;;;;;;5094935;28;20277;-71
2024/01/30 03:23:36;;;;;;;8.80;3.55;;;1.80;59.30;;;;;;5094358;28;20213;-71
2024/01/30 03:26:06;;;;;;;5.60;3.97;;;1.80;59.30;;;;;;5094547;28;20651;-70
2024/01/30 03:28:33;;;;;;;9.05;4.68;;;1.80;59.20;;;;;;5075044;28;20305;-71
2024/01/30 03:31:02;;;;;;;8.65;3.65;;;1.80;59.20;;;;;;5074750;28;20241;-71
2024/01/30 03:33:29;;;;;;;8.82;4.15;;;1.80;59.20;;;;;;5088318;28;20651;-70
2024/01/30 03:35:56;;;;;;;6.47;3.42;;;1.80;59.40;;;;;;5094453;28;20643;-71
2024/01/30 03:38:23;;;;;;;5.55;3.47;;;1.80;59.30;;;;;;5094993;28;20238;-71
2024/01/30 03:40:50;;;;;;;6.90;4.10;;;1.80;59.20;;;;;;5094414;28;20565;-71
2024/01/30 03:43:17;;;;;;;6.68;3.25;;;1.80;59.20;;;;;;5094519;28;20189;-71
2024/01/30 03:45:44;;;;;;;8.65;3.13;;;1.80;59.40;;;;;;5094924;28;20268;-71
2024/01/30 03:48:12;;;;;;;5.45;3.03;;;1.80;59.70;;;;;;5094363;28;20617;-71
2024/01/30 03:50:39;;;;;;;4.70;2.97;;;1.80;59.80;;;;;;5094453;28;20277;-71
2024/01/30 03:53:06;;;;;;;5.18;3.60;;;1.80;59.80;;;;;;5094643;28;20225;-71
2024/01/30 03:55:33;;;;;;;7.80;4.00;;;1.90;59.80;;;;;;5092863;28;20643;-71
2024/01/30 03:58:00;;;;;;;4.82;3.58;;;1.90;59.70;;;;;;5094043;28;20235;-70
2024/01/30 04:00:27;;;;;;;5.90;3.83;;;1.90;60.10;;;;;;5093918;28;20208;-71
2024/01/30 04:02:55;;;;;;;5.30;3.38;;;2.00;60.90;;;;;;5094313;28;20272;-71
2024/01/30 04:05:23;;;;;;;7.68;3.75;;;2.00;60.30;;;;;;5093127;28;20640;-70
2024/01/30 04:07:50;;;;;;;6.18;3.33;;;1.90;60.20;;;;;;5093760;28;20281;-71
2024/01/30 04:10:17;;;;;;;7.47;3.40;;;1.90;60.20;;;;;;5093893;28;20231;-71
2024/01/30 04:12:44;;;;;;;5.68;3.95;;;1.90;60.30;;;;;;5094055;28;20186;-74
2024/01/30 04:15:13;;;;;;;5.35;3.42;;;1.90;60.30;;;;;;5094377;28;20279;-74
2024/01/30 04:17:40;;;;;;;5.85;3.80;;;1.90;60.00;;;;;;5094082;28;20217;-73
2024/01/30 04:20:08;;;;;;;6.10;3.70;;;1.90;59.70;;;;;;5094165;28;20197;-71
2024/01/30 04:22:36;;;;;;;4.32;3.00;;;2.00;59.60;;;;;;5094204;28;20243;-72
2024/01/30 04:25:04;;;;;;;8.15;3.58;;;2.00;59.30;;;;;;5093069;28;20272;-71
2024/01/30 04:27:31;;;;;;;10.48;4.50;;;2.00;59.30;;;;;;5094191;28;20234;-71
2024/01/30 04:29:58;;;;;;;8.48;5.78;;;2.00;59.40;;;;;;5092485;28;20236;-72
2024/01/30 04:32:25;;;;;;;5.70;4.40;;;1.90;59.20;;;;;;5093703;28;20234;-72
2024/01/30 04:34:52;;;;;;;9.38;5.80;;;2.00;59.60;;;;;;5094016;28;20564;-72
2024/01/30 04:37:19;;;;;;;8.25;4.63;;;1.90;59.60;;;;;;5093973;28;20577;-72
2024/01/30 04:39:47;;;;;;;8.57;5.45;;;1.90;60.80;;;;;;5093340;28;20209;-71
2024/01/30 04:42:14;;;;;;;10.77;6.22;;;1.90;60.30;;;;;;5093985;28;20217;-72
2024/01/30 04:44:41;;;;;;;7.72;5.78;;;1.90;60.30;;;;;;5093271;28;20181;-72
2024/01/30 04:47:13;;;;;;;6.22;4.40;;;1.90;60.20;;;;;;5093843;28;20203;-71
2024/01/30 04:49:40;;;;;;;5.82;4.22;;;1.90;61.00;;;;;;5093417;28;20284;-72
2024/01/30 04:52:08;;;;;;;8.43;5.05;;;1.90;60.30;;;;;;5093349;28;20185;-72
2024/01/30 04:54:35;;;;;;;7.57;3.70;;;1.90;60.30;;;;;;5093717;28;20604;-70
2024/01/30 04:57:05;;;;;;;10.50;6.22;;;1.90;60.60;;;;;;5093308;28;20374;-72
2024/01/30 04:59:32;;;;;;;9.38;6.00;;;1.90;60.00;;;;;;5093663;28;20189;-73
2024/01/30 05:01:59;;;;;;;7.38;5.72;;;1.90;59.90;;;;;;5093668;28;20217;-73
2024/01/30 05:04:26;;;;;;;7.25;4.90;;;1.90;60.00;;;;;;5093517;28;20224;-73
2024/01/30 05:06:53;;;;;;;7.25;4.40;;;1.90;59.50;;;;;;5087957;28;20177;-73
2024/01/30 05:09:21;;;;;;;5.88;3.40;;;1.90;59.20;;;;;;5073515;28;20246;-71
2024/01/30 05:11:48;;;;;;;7.07;3.30;;;1.90;59.00;;;;;;5073337;28;20221;-71
2024/01/30 05:14:17;;;;;;;6.97;3.30;;;1.90;59.50;;;;;;5091020;28;20228;-74
2024/01/30 05:16:47;;;;;;;6.28;4.00;;;1.80;59.90;;;;;;5093384;28;20193;-71
2024/01/30 05:19:14;;;;;;;8.40;4.90;;;1.80;60.00;;;;;;5093531;28;20278;-71
2024/01/30 05:21:42;;;;;;;6.05;4.05;;;1.80;60.20;;;;;;5093462;28;20221;-71
2024/01/30 05:24:10;;;;;;;6.90;3.45;;;1.70;60.50;;;;;;5093776;28;20185;-74
2024/01/30 05:26:37;;;;;;;7.25;4.10;;;1.70;60.90;;;;;;5079468;28;20235;-74
2024/01/30 05:29:04;;;;;;;7.47;4.18;;;1.70;61.30;;;;;;5073341;28;20300;-70
2024/01/30 05:31:32;;;;;;;8.15;3.83;;;1.80;60.90;;;;;;5079053;28;20189;-72
2024/01/30 05:33:59;;;;;;;6.65;3.30;;;1.70;60.30;;;;;;5093775;28;20593;-71
2024/01/30 05:36:27;;;;;;;6.28;3.95;;;1.80;61.30;;;;;;5093588;28;20182;-72
2024/01/30 05:38:54;;;;;;;7.10;4.22;;;1.70;60.00;;;;;;5093584;28;20189;-72
2024/01/30 05:41:21;;;;;;;5.60;3.78;;;1.70;59.80;;;;;;5092983;28;20213;-71
2024/01/30 05:43:48;;;;;;;7.10;4.20;;;1.70;59.60;;;;;;5092684;28;20706;-72
2024/01/30 05:46:15;;;;;;;4.90;3.08;;;1.70;59.30;;;;;;5091329;28;20213;-72
2024/01/30 05:48:44;;;;;;;6.20;3.20;;;1.70;59.10;;;;;;5093130;28;20241;-71
2024/01/30 05:51:11;;;;;;;5.47;3.33;;;1.70;58.80;;;;;;5093422;28;20181;-72
2024/01/30 05:53:40;;;;;;;6.55;4.20;;;1.70;58.90;;;;;;5089978;28;20659;-71
2024/01/30 05:56:07;;;;;;;5.68;3.00;;;1.60;59.10;;;;;;5078194;28;20221;-71
2024/01/30 05:58:34;;;;;;;6.72;3.97;;;1.60;59.80;;;;;;5096712;28;20193;-71
2024/01/30 06:01:01;;;;;;;9.38;3.72;;;1.60;60.10;;;;;;5096704;28;20226;-72
2024/01/30 06:03:28;;;;;;;6.10;2.97;;;1.60;60.50;;;;;;5096889;28;20268;-71
2024/01/30 06:05:56;;;;;;;6.50;3.03;;;1.60;60.80;;;;;;5097056;28;20573;-74
2024/01/30 06:08:23;;;;;;;5.70;3.30;;;1.70;60.90;;;;;;5092203;28;20261;-72
2024/01/30 06:10:50;;;;;;;7.90;2.90;;;1.70;60.80;;;;;;5082013;28;20209;-72
2024/01/30 06:13:17;;;;;;;4.60;2.70;;;1.70;61.00;;;;;;5096173;28;20232;-71
2024/01/30 06:15:44;;;;;;;5.35;3.42;;;1.70;60.50;;;;;;5096262;28;20356;-72
2024/01/30 06:18:11;;;;;;;4.90;2.90;;;1.80;59.60;;;;;;5096196;28;20260;-72
2024/01/30 06:20:38;;;;;;;8.55;5.55;;;1.80;59.30;;;;;;5095694;28;20181;-72
2024/01/30 06:23:06;;;;;;;10.40;4.50;;;1.80;59.20;;;;;;5095980;28;20221;-72
2024/01/30 06:25:33;;;;;;;10.52;6.55;;;1.70;58.90;;;;;;5091420;28;20213;-71
2024/01/30 06:28:00;;;;;;;10.70;5.78;;;1.70;59.10;;;;;;5095353;28;20224;-71
2024/01/30 06:30:27;;;;;;;10.43;5.75;;;1.70;59.50;;;;;;5089083;28;20298;-72
2024/01/30 06:32:55;;;;;;;10.73;7.00;;;1.60;59.70;;;;;;5096055;28;20592;-71
2024/01/30 06:35:22;;;;;;;14.25;5.43;;;1.60;59.80;;;;;;5076633;28;20237;-71
2024/01/30 06:37:49;;;;;;;7.80;4.30;;;1.60;60.10;;;;;;5089405;28;20185;-71
2024/01/30 06:40:17;;;;;;;11.45;5.28;;;1.60;60.40;;;;;;5095234;28;20272;-71
2024/01/30 06:42:44;;;;;;;8.35;4.38;;;1.50;60.80;;;;;;5096044;28;20284;-71
2024/01/30 06:45:11;;;;;;;8.25;5.00;;;1.60;61.00;;;;;;5080549;28;20214;-72
2024/01/30 06:47:38;;;;;;;10.52;5.00;;;1.60;61.20;;;;;;5088198;28;20273;-73
2024/01/30 06:50:06;;;;;;;10.45;5.13;;;1.60;60.80;;;;;;5095706;28;20364;-71
2024/01/30 06:52:33;;;;;;;7.65;4.82;;;1.60;61.10;;;;;;5095770;28;20264;-71
2024/01/30 06:55:00;;;;;;;7.05;4.13;;;1.60;61.30;;;;;;5095478;28;20272;-71
2024/01/30 06:57:30;;;;;;;6.50;4.00;;;1.70;61.40;;;;;;5094884;28;20221;-71
2024/01/30 06:59:57;;;;;;;6.43;3.83;;;1.70;61.30;;;;;;5095449;28;20533;-71
2024/01/30 07:02:24;;;;;;;6.97;3.60;;;1.70;61.50;;;;;;5083411;28;20248;-70
2024/01/30 07:04:53;;;;;;;10.70;4.85;;;1.70;61.50;;;;;;5077586;28;20647;-71
2024/01/30 07:07:20;;;;;;;7.57;5.25;;;1.70;61.20;;;;;;5085014;28;20232;-74
2024/01/30 07:09:49;;;;;;;8.23;4.45;;;1.80;60.30;;;;;;5074952;28;20236;-71
2024/01/30 07:12:16;;;;;;;8.38;5.03;;;1.90;59.50;;;;;;5092563;28;20182;-71
2024/01/30 07:14:44;;;;;;;8.52;4.72;;;2.00;58.90;;;;;;5094170;28;20273;-72
2024/01/30 07:17:11;;;;;;;9.35;5.50;;;2.10;58.40;;;;;;5080164;28;20265;-72
2024/01/30 07:19:38;;;;;;;10.65;5.38;;;2.10;58.30;;;;;;5094436;28;20205;-72
2024/01/30 07:22:05;;;;;;;11.85;6.35;;;2.20;58.80;;;;;;5088867;28;20225;-70
2024/01/30 07:24:32;;;;;;;15.80;8.07;;;2.30;59.20;;;;;;5083847;28;20209;-71
2024/01/30 07:26:59;;;;;;;11.90;6.53;;;2.30;59.50;;;;;;5094645;28;20221;-71
2024/01/30 07:29:26;;;;;;;17.27;8.80;;;2.30;60.00;;;;;;5094487;28;20240;-69
2024/01/30 07:31:55;;;;;;;16.52;8.13;;;2.40;60.30;;;;;;5094296;28;20186;-71
2024/01/30 07:34:22;;;;;;;18.13;9.20;;;2.60;60.90;;;;;;5095212;28;20217;-71
2024/01/30 07:36:49;;;;;;;19.45;11.60;;;2.80;60.70;;;;;;5095174;28;20217;-71
2024/01/30 07:39:16;;;;;;;24.42;12.70;;;2.90;61.00;;;;;;5090298;28;20574;-71
2024/01/30 07:41:43;;;;;;;20.10;12.10;;;3.10;61.30;;;;;;5094646;28;20281;-71
2024/01/30 07:44:10;;;;;;;19.10;11.07;;;3.30;60.90;;;;;;5095174;28;20198;-71
2024/01/30 07:46:37;;;;;;;16.13;10.52;;;3.60;60.50;;;;;;5095065;28;20279;-72
2024/01/30 07:49:05;;;;;;;18.45;9.95;;;3.80;59.90;;;;;;5094957;28;20388;-73
2024/01/30 07:51:32;;;;;;;9.02;6.15;;;4.00;59.80;;;;;;5094601;28;20647;-71
2024/01/30 07:53:59;;;;;;;9.63;5.22;;;4.20;59.20;;;;;;5094856;28;20277;-71
2024/01/30 07:56:26;;;;;;;7.13;4.50;;;4.40;58.90;;;;;;5092406;28;20200;-71
2024/01/30 07:58:54;;;;;;;8.45;4.22;;;4.50;59.00;;;;;;5093590;28;20231;-72
2024/01/30 08:01:20;;;;;;;7.57;5.15;;;4.80;58.00;;;;;;5094824;28;20225;-72
2024/01/30 08:03:47;;;;;;;8.38;5.43;;;5.00;57.70;;;;;;5094758;28;20189;-71
2024/01/30 08:06:16;;;;;;;8.45;5.38;;;5.20;57.30;;;;;;5094565;28;20221;-71
2024/01/30 08:08:43;;;;;;;9.05;5.70;;;5.50;55.90;;;;;;5094723;28;20225;-71
2024/01/30 08:11:10;;;;;;;10.75;5.00;;;5.80;55.90;;;;;;5094357;28;20305;-71
2024/01/30 08:13:37;;;;;;;9.63;5.85;;;6.10;55.60;;;;;;5093436;28;20221;-70
2024/01/30 08:16:04;;;;;;;8.38;6.00;;;6.30;55.00;;;;;;5094065;28;20235;-71
2024/01/30 08:18:31;;;;;;;7.63;6.07;;;6.50;54.40;;;;;;5093176;28;20266;-71
2024/01/30 08:20:58;;;;;;;7.47;5.25;;;6.70;54.00;;;;;;5094360;28;20724;-71
2024/01/30 08:23:26;;;;;;;8.60;5.60;;;6.80;53.60;;;;;;5094266;28;20193;-71
2024/01/30 08:25:53;;;;;;;8.90;5.97;;;7.00;53.80;;;;;;5094095;28;20189;-71
2024/01/30 08:28:20;;;;;;;10.48;7.35;;;7.30;52.80;;;;;;5094265;28;20276;-71
2024/01/30 08:30:47;;;;;;;11.35;7.22;;;7.60;51.90;;;;;;5094115;28;20294;-71
2024/01/30 08:33:14;;;;;;;11.52;8.35;;;7.80;51.50;;;;;;5094145;28;20189;-71
2024/01/30 08:35:41;;;;;;;13.60;8.48;;;8.00;51.40;;;;;;5093775;28;20190;-70
2024/01/30 08:38:08;;;;;;;10.93;7.90;;;8.30;51.10;;;;;;5094123;28;20525;-71
2024/01/30 08:40:37;;;;;;;17.08;10.40;;;8.60;52.20;;;;;;5093631;28;20235;-71
2024/01/30 08:43:04;;;;;;;28.33;20.23;;;9.00;51.10;;;;;;5093951;28;20277;-71
2024/01/30 08:45:31;;;;;;;23.52;13.38;;;9.30;50.80;;;;;;5094092;28;20600;-71
2024/01/30 08:47:58;;;;;;;13.32;10.95;;;9.60;49.50;;;;;;5093474;28;20192;-71
2024/01/30 08:50:25;;;;;;;16.05;10.10;;;10.00;48.90;;;;;;5093644;28;20312;-71
2024/01/30 08:52:52;;;;;;;21.48;13.63;;;10.40;47.80;;;;;;5093748;28;20523;-71
2024/01/30 08:55:24;;;;;;;28.77;15.48;;;10.80;46.10;;;;;;5093389;28;20322;-72
2024/01/30 08:57:53;;;;;;;22.08;13.38;;;11.20;45.70;;;;;;5093757;28;20216;-71
2024/01/30 09:00:20;;;;;;;14.68;9.25;;;11.50;45.70;;;;;;5093588;28;20201;-71
2024/01/30 09:02:47;;;;;;;16.35;7.00;;;11.80;45.30;;;;;;5093645;28;20239;-71
2024/01/30 09:05:14;;;;;;;9.52;6.22;;;12.20;43.60;;;;;;5093555;28;20193;-71
2024/01/30 09:07:41;;;;;;;12.48;9.30;;;12.40;41.30;;;;;;5093251;28;20185;-72
2024/01/30 09:10:13;;;;;;;12.23;10.07;;;12.70;42.10;;;;;;5093578;28;20306;-71
2024/01/30 09:12:40;;;;;;;7.70;6.70;;;13.10;42.30;;;;;;5093219;28;20420;-72
2024/01/30 09:15:23;;;;;;;9.37;5.80;;;13.40;41.30;;;;;;5093095;28;20478;-71
2024/01/30 09:17:51;;;;;;;10.90;5.90;;;13.80;41.00;;;;;;5092414;28;20796;-72
2024/01/30 09:20:19;;;;;;;7.67;5.40;;;14.10;40.60;;;;;;5093595;28;20427;-71
2024/01/30 09:22:46;;;;;;;10.40;7.47;;;14.30;39.70;;;;;;5093540;28;20772;-71
2024/01/30 09:25:15;;;;;;;11.70;7.43;;;14.50;40.10;;;;;;5093366;28;20774;-72
2024/01/30 09:27:43;;;;;;;11.30;8.57;;;14.80;40.10;;;;;;5092941;28;20427;-71
2024/01/30 09:30:10;;;;;;;11.67;8.93;;;15.10;40.00;;;;;;5093960;28;20986;-71
2024/01/30 09:32:40;;;;;;;9.10;8.20;;;15.50;38.50;;;;;;5097350;28;20474;-71
2024/01/30 09:35:08;;;;;;;10.63;8.27;;;16.00;37.50;;;;;;5097300;28;20467;-71
2024/01/30 09:37:37;;;;;;;11.67;9.50;;;16.30;37.00;;;;;;5097409;28;20469;-71
2024/01/30 09:40:05;;;;;;;13.90;10.83;;;16.60;36.50;;;;;;5097184;28;20466;-71
2024/01/30 09:42:36;;;;;;;12.37;8.90;;;16.90;35.80;;;;;;5096835;28;20436;-71
2024/01/30 09:45:04;;;;;;;17.80;9.77;;;17.10;34.80;;;;;;5097265;28;20764;-72
2024/01/30 09:47:33;;;;;;;13.53;10.27;;;17.20;35.70;;;;;;5097112;28;20450;-72
2024/01/30 09:50:05;;;;;;;12.00;9.60;;;17.40;35.40;;;;;;5097055;28;20563;-71
2024/01/30 09:52:33;;;;;;;12.13;8.77;;;17.60;34.40;;;;;;5097350;28;20435;-72
2024/01/30 09:55:02;;;;;;;13.03;10.47;;;17.90;33.30;;;;;;5096655;28;20525;-72
2024/01/30 09:57:29;;;;;;;13.00;8.23;;;18.10;33.80;;;;;;5096898;28;20776;-72
2024/01/30 09:59:58;;;;;;;9.80;6.63;;;18.30;32.10;;;;;;5096580;28;20473;-72
2024/01/30 10:02:25;;;;;;;9.37;7.40;;;18.50;31.20;;;;;;5096632;28;20995;-72
2024/01/30 10:04:53;;;;;;;9.60;6.80;;;18.60;31.20;;;;;;5096490;28;20952;-72
2024/01/30 10:07:23;;;;;;;8.23;4.90;;;19.00;30.30;;;;;;5096646;28;20466;-72
2024/01/30 10:09:50;;;;;;;11.50;7.83;;;19.20;29.80;;;;;;5096716;28;20511;-72
2024/01/30 10:12:17;;;;;;;10.70;7.27;;;19.40;30.50;;;;;;5096668;28;20426;-71
2024/01/30 10:14:44;;;;;;;12.50;8.00;;;19.60;30.00;;;;;;5096619;28;20445;-72
2024/01/30 10:17:13;;;;;;;10.40;7.23;;;19.80;30.20;;;;;;5096617;28;20470;-72
2024/01/30 10:19:41;;;;;;;10.23;4.80;;;20.10;31.70;;;;;;5096626;28;20527;-72
2024/01/30 10:22:08;;;;;;;8.37;3.60;;;20.50;32.00;;;;;;5096497;28;20463;-71
2024/01/30 10:24:37;;;;;;;5.57;3.00;;;20.80;31.10;;;;;;5096367;28;20466;-71
2024/01/30 10:27:06;;;;;;;4.80;3.17;;;21.00;29.80;;;;;;5096425;28;20467;-72
2024/01/30 10:29:33;;;;;;;5.33;2.90;;;21.30;29.70;;;;;;5095939;28;20467;-72
2024/01/30 10:32:01;;;;;;;4.13;2.00;;;21.50;29.80;;;;;;5095956;28;20427;-72
2024/01/30 10:34:28;;;;;;;4.10;2.50;;;21.60;29.30;;;;;;5096264;28;20458;-72
2024/01/30 10:37:01;;;;;;;4.87;3.63;;;21.80;29.30;;;;;;5096267;28;20437;-73
2024/01/30 10:39:31;;;;;;;4.63;2.70;;;22.00;28.20;;;;;;5096264;28;20427;-72
2024/01/30 10:42:05;;;;;;;4.50;2.47;;;22.20;28.80;;;;;;5094625;28;20908;-72
2024/01/30 10:44:38;;;;;;;6.73;2.90;;;22.40;29.10;;;;;;5095997;28;20458;-72
2024/01/30 10:47:11;;;;;;;7.30;2.67;;;22.60;27.80;;;;;;5096101;28;20434;-72
2024/01/30 10:49:39;;;;;;;4.23;2.50;;;22.80;27.60;;;;;;5095943;28;20835;-72
2024/01/30 10:52:06;;;;;;;6.00;2.63;;;22.90;27.30;;;;;;5095952;28;20949;-72
2024/01/30 10:54:36;;;;;;;4.67;2.30;;;23.00;27.20;;;;;;5095691;28;20467;-71
2024/01/30 10:57:05;;;;;;;5.60;2.30;;;22.90;26.80;;;;;;5095619;28;20971;-71
2024/01/30 10:59:33;;;;;;;3.13;1.70;;;22.90;27.30;;;;;;5095950;28;20435;-72
2024/01/30 11:02:01;;;;;;;4.00;1.87;;;22.90;26.90;;;;;;5095878;28;20477;-72
2024/01/30 11:04:28;;;;;;;4.73;1.60;;;23.00;26.70;;;;;;5095896;28;20467;-72
2024/01/30 11:06:55;;;;;;;4.47;2.20;;;22.90;27.00;;;;;;5095827;28;20458;-72
2024/01/30 11:09:22;;;;;;;4.63;2.40;;;22.70;27.40;;;;;;5096051;28;20833;-72
2024/01/30 11:11:50;;;;;;;7.67;2.17;;;22.60;27.30;;;;;;5095716;28;20502;-71
2024/01/30 11:14:24;;;;;;;3.60;1.90;;;22.40;26.80;;;;;;5095720;28;20517;-72
2024/01/30 11:16:52;;;;;;;4.87;2.70;;;22.10;27.30;;;;;;5095218;28;20948;-72
2024/01/30 11:19:24;;;;;;;6.93;2.37;;;21.70;26.60;;;;;;5095312;28;20501;-72
2024/01/30 11:21:53;;;;;;;4.27;2.43;;;21.40;27.60;;;;;;5095574;28;20526;-71
2024/01/30 11:24:21;;;;;;;4.63;3.10;;;21.00;27.80;;;;;;5095050;28;20427;-71
2024/01/30 11:26:49;;;;;;;6.20;3.73;;;20.70;28.10;;;;;;5095617;28;20465;-72
2024/01/30 11:29:17;;;;;;;5.63;2.40;;;20.30;28.30;;;;;;5095369;28;21023;-72
2024/01/30 11:31:53;;;;;;;14.10;3.10;;;19.90;28.70;;;;;;5094917;28;20550;-71
2024/01/30 11:34:21;;;;;;;3.63;1.77;;;19.50;28.90;;;;;;5095424;28;20457;-71
2024/01/30 11:36:55;;;;;;;7.03;1.67;;;19.20;29.40;;;;;;5095138;28;20465;-72
2024/01/30 11:39:22;;;;;;;3.23;2.03;;;19.00;29.90;;;;;;5095403;28;20462;-71
2024/01/30 11:41:52;;;;;;;5.83;2.10;;;18.80;29.90;;;;;;5094745;28;20437;-71
2024/01/30 11:44:21;;;;;;;4.77;2.07;;;18.80;30.60;;;;;;5094668;28;20502;-71
2024/01/30 11:46:52;;;;;;;3.00;1.50;;;18.90;30.70;;;;;;5094166;28;20435;-71
2024/01/30 11:49:19;;;;;;;3.13;1.60;;;19.20;30.70;;;;;;5094509;28;20485;-72
2024/01/30 11:51:48;;;;;;;5.70;1.70;;;19.40;30.40;;;;;;5094732;28;20513;-71
2024/01/30 11:54:16;;;;;;;8.10;2.53;;;19.50;30.00;;;;;;5094776;28;20446;-72
2024/01/30 11:56:44;;;;;;;3.37;1.80;;;19.80;29.60;;;;;;5094879;28;20767;-72
2024/01/30 11:59:11;;;;;;;7.43;1.90;;;20.10;28.80;;;;;;5094425;28;20435;-72
2024/01/30 12:01:39;;;;;;;3.13;1.63;;;20.40;28.90;;;;;;5094719;28;20545;-72
2024/01/30 12:04:08;;;;;;;4.77;2.67;;;20.40;28.60;;;;;;5094745;28;20828;-71
2024/01/30 12:06:41;;;;;;;7.07;2.47;;;20.40;28.90;;;;;;5078486;28;20428;-71
2024/01/30 12:09:13;;;;;;;4.53;2.43;;;20.30;28.80;;;;;;5093462;28;20427;-72
2024/01/30 12:11:47;;;;;;;5.60;2.63;;;20.40;28.70;;;;;;5094643;28;20455;-72
2024/01/30 12:14:30;;;;;;;3.40;1.90;;;20.20;28.60;;;;;;5093494;28;20427;-71
2024/01/30 12:16:58;;;;;;;7.97;2.20;;;20.00;28.10;;;;;;5093952;28;20502;-72
2024/01/30 12:19:25;;;;;;;3.73;1.93;;;19.70;28.30;;;;;;5093485;28;20551;-72
2024/01/30 12:21:58;;;;;;;3.33;2.03;;;19.50;28.50;;;;;;5094353;28;20446;-72
2024/01/30 12:24:26;;;;;;;6.00;1.93;;;19.40;28.90;;;;;;5084875;28;21083;-72
2024/01/30 12:27:11;;;;;;;8.33;2.37;;;19.50;29.10;;;;;;5090852;28;20439;-73
2024/01/30 12:29:42;;;;;;;5.80;1.60;;;19.70;29.10;;;;;;5082007;28;20510;-72
2024/01/30 12:32:16;;;;;;;5.13;2.07;;;19.80;28.90;;;;;;5078315;28;20498;-71
2024/01/30 12:34:43;;;;;;;4.93;2.50;;;19.90;29.30;;;;;;5093089;28;20426;-72
2024/01/30 12:37:11;;;;;;;5.10;2.07;;;19.90;29.50;;;;;;5092511;28;20577;-72
2024/01/30 12:39:38;;;;;;;8.93;2.60;;;19.90;29.40;;;;;;5093545;28;20461;-72
2024/01/30 12:42:05;;;;;;;3.67;2.20;;;19.90;29.70;;;;;;5089989;28;20514;-72
2024/01/30 12:44:32;;;;;;;6.00;2.63;;;20.00;29.10;;;;;;5093451;28;20471;-72
2024/01/30 12:46:59;;;;;;;5.47;2.17;;;20.10;28.60;;;;;;5092244;28;20971;-72
2024/01/30 12:49:28;;;;;;;5.97;2.30;;;20.20;27.90;;;;;;5088843;28;20507;-72
2024/01/30 12:51:55;;;;;;;5.57;2.20;;;20.20;27.80;;;;;;5073613;28;20558;-71
2024/01/30 12:54:23;;;;;;;6.57;2.03;;;20.20;27.60;;;;;;5073731;28;20468;-72